Terminal Aerodrome Forecast
Issued by NWS Blacksburg, VA

Current Version | Previous Version | Text Only | Print | Product List | Glossary On
Versions: 1 2 3 4 5 6 7 8 9 10 11 12 13 14
000
FTUS41 KRNK 281739
TAFROA
TAF
KROA 281739Z 2818/2918 15007KT P6SM SCT060 SCT250
     FM290000 14006KT P6SM BKN250
     FM290600 13003KT P6SM OVC100
     FM291100 VRB03KT P6SM OVC060
     FM291400 36003KT 6SM -RA OVC040=

USA.gov is the U.S. government's official web portal to all federal, state and local government web resources and services.